createdAt,value
2024-04-21T00:02:18.591Z,0.00
2024-04-21T00:05:18.621Z,0.00
2024-04-21T00:08:18.550Z,0.00
2024-04-21T00:11:18.667Z,0.00
2024-04-21T00:14:18.497Z,0.00
2024-04-21T00:17:18.457Z,0.00
2024-04-21T00:20:18.444Z,0.00
2024-04-21T00:23:18.422Z,0.00
2024-04-21T00:26:18.360Z,0.00
2024-04-21T00:29:18.344Z,0.00
2024-04-21T00:32:18.299Z,0.00
2024-04-21T00:35:18.279Z,0.00
2024-04-21T00:38:18.227Z,0.00
2024-04-21T00:41:18.220Z,0.00
2024-04-21T00:44:18.181Z,0.00
2024-04-21T00:47:18.216Z,0.00
2024-04-21T00:50:18.151Z,0.00
2024-04-21T00:53:18.143Z,0.00
2024-04-21T00:56:18.197Z,0.00
2024-04-21T00:59:18.150Z,0.00
2024-04-21T01:02:18.134Z,0.00
2024-04-21T01:05:18.083Z,0.00
2024-04-21T01:08:17.932Z,0.00
2024-04-21T01:11:17.936Z,0.00
2024-04-21T01:14:17.919Z,0.00
2024-04-21T01:17:17.871Z,0.00
2024-04-21T01:20:17.827Z,0.00
2024-04-21T01:23:17.798Z,0.00
2024-04-21T01:26:17.780Z,0.00
2024-04-21T01:29:17.745Z,0.00
2024-04-21T01:32:17.741Z,0.00
2024-04-21T01:35:17.683Z,0.00
2024-04-21T01:38:17.648Z,0.00
2024-04-21T01:41:17.623Z,0.00
2024-04-21T01:44:17.581Z,0.00
2024-04-21T01:47:17.650Z,0.00
2024-04-21T01:50:17.555Z,0.00
2024-04-21T01:53:17.488Z,0.00
2024-04-21T01:56:17.474Z,0.00
2024-04-21T01:59:17.459Z,0.00
2024-04-21T02:02:17.460Z,0.00
2024-04-21T02:05:17.380Z,0.00
2024-04-21T02:08:17.341Z,0.00
2024-04-21T02:11:17.319Z,0.00
2024-04-21T02:14:17.304Z,0.00
2024-04-21T02:17:17.291Z,0.00
2024-04-21T02:20:17.221Z,0.00
2024-04-21T02:23:17.189Z,0.00
2024-04-21T02:26:17.169Z,0.00
2024-04-21T02:29:17.163Z,0.00
2024-04-21T02:32:17.135Z,0.00
2024-04-21T02:35:17.096Z,0.00
2024-04-21T02:38:17.062Z,0.00
2024-04-21T02:41:17.050Z,0.00
2024-04-21T02:44:16.996Z,0.00
2024-04-21T02:47:17.011Z,0.00
2024-04-21T02:50:16.933Z,0.00
2024-04-21T02:53:16.900Z,0.00
2024-04-21T02:56:16.886Z,0.00
2024-04-21T02:59:16.850Z,0.00
2024-04-21T03:02:16.905Z,0.00
2024-04-21T03:05:16.780Z,0.00
2024-04-21T03:08:16.748Z,0.00
2024-04-21T03:11:16.732Z,0.00
2024-04-21T03:14:16.699Z,0.00
2024-04-21T03:17:16.609Z,1.00
2024-04-21T03:20:16.611Z,1.00
2024-04-21T03:23:16.566Z,1.00
2024-04-21T03:26:16.524Z,2.00
2024-04-21T03:29:16.542Z,0.00
2024-04-21T03:32:16.505Z,3.00
2024-04-21T03:35:16.496Z,1.00
2024-04-21T03:38:16.393Z,2.00
2024-04-21T03:41:16.376Z,4.00
2024-04-21T03:44:16.333Z,8.00
2024-04-21T03:47:16.346Z,13.00
2024-04-21T03:50:16.300Z,21.00
2024-04-21T03:53:16.245Z,34.00
2024-04-21T03:56:16.237Z,45.00
2024-04-21T03:59:16.216Z,58.00
2024-04-21T04:02:16.196Z,81.00
2024-04-21T04:05:16.138Z,108.00
2024-04-21T04:08:16.090Z,131.00
2024-04-21T04:11:16.115Z,160.00
2024-04-21T04:14:16.049Z,168.00
2024-04-21T04:17:16.069Z,202.00
2024-04-21T04:20:15.983Z,220.00
2024-04-21T04:23:15.953Z,252.00
2024-04-21T04:26:15.927Z,286.00
2024-04-21T04:29:15.919Z,324.00
2024-04-21T04:32:15.895Z,354.00
2024-04-21T04:35:15.839Z,380.00
2024-04-21T04:38:15.810Z,396.00
2024-04-21T04:41:15.785Z,417.00
2024-04-21T04:44:15.779Z,437.00
2024-04-21T04:47:15.751Z,592.00
2024-04-21T04:50:15.690Z,515.00
2024-04-21T04:53:15.654Z,501.00
2024-04-21T04:56:15.630Z,511.00
2024-04-21T04:59:15.606Z,521.00
2024-04-21T05:02:15.571Z,536.00
2024-04-21T05:05:15.554Z,557.00
2024-04-21T05:08:15.492Z,615.00
2024-04-21T05:11:15.563Z,577.00
2024-04-21T05:14:15.439Z,769.00
2024-04-21T05:17:15.432Z,872.00
2024-04-21T05:20:15.398Z,838.00
2024-04-21T05:23:15.364Z,1007.00
2024-04-21T05:26:15.314Z,1078.00
2024-04-21T05:29:15.308Z,1081.00
2024-04-21T05:32:15.310Z,1212.00
2024-04-21T05:35:15.300Z,903.00
2024-04-21T05:38:15.239Z,1119.00
2024-04-21T05:41:15.164Z,984.00
2024-04-21T05:44:15.157Z,1225.00
2024-04-21T05:47:15.198Z,1155.00
2024-04-21T05:50:15.151Z,999.00
2024-04-21T05:53:15.098Z,1430.00
2024-04-21T05:56:15.077Z,1766.00
2024-04-21T05:59:15.030Z,1480.00
2024-04-21T06:02:14.967Z,1085.00
2024-04-21T06:05:15.107Z,1044.00
2024-04-21T06:08:14.930Z,1054.00
2024-04-21T06:11:14.898Z,1067.00
2024-04-21T06:14:14.858Z,1086.00
2024-04-21T06:17:14.810Z,1103.00
2024-04-21T06:20:14.814Z,1099.00
2024-04-21T06:23:14.868Z,1112.00
2024-04-21T06:26:14.724Z,1125.00
2024-04-21T06:29:14.729Z,1133.00
2024-04-21T06:32:14.678Z,1138.00
2024-04-21T06:35:14.662Z,1155.00
2024-04-21T06:38:14.625Z,1159.00
2024-04-21T06:41:14.596Z,1169.00
2024-04-21T06:44:14.545Z,1187.00
2024-04-21T06:47:14.552Z,1190.00
2024-04-21T06:50:14.582Z,1195.00
2024-04-21T06:53:14.496Z,1217.00
2024-04-21T06:56:14.417Z,1217.00
2024-04-21T06:59:14.505Z,1237.00
2024-04-21T07:02:14.438Z,1242.00
2024-04-21T07:05:14.335Z,1247.00
2024-04-21T07:08:14.353Z,1267.00
2024-04-21T07:11:14.302Z,1263.00
2024-04-21T07:14:20.360Z,1268.00
2024-04-21T07:17:14.193Z,1278.00
2024-04-21T07:20:14.188Z,1297.00
2024-04-21T07:23:14.148Z,1299.00
2024-04-21T07:26:14.117Z,1313.00
2024-04-21T07:29:14.129Z,1314.00
2024-04-21T07:32:14.033Z,1327.00
2024-04-21T07:35:14.078Z,1336.00
2024-04-21T07:38:13.992Z,1356.00
2024-04-21T07:41:13.952Z,1354.00
2024-04-21T07:44:13.955Z,1371.00
2024-04-21T07:47:14.014Z,1378.00
2024-04-21T07:50:13.952Z,1380.00
2024-04-21T07:53:13.842Z,1386.00
2024-04-21T07:56:13.912Z,1407.00
2024-04-21T07:59:20.303Z,1409.00
2024-04-21T08:02:13.750Z,1406.00
2024-04-21T08:05:13.710Z,1424.00
2024-04-21T08:08:13.764Z,1416.00
2024-04-21T08:11:13.689Z,1436.00
2024-04-21T08:14:13.618Z,1448.00
2024-04-21T08:17:13.647Z,1441.00
2024-04-21T08:20:13.665Z,1469.00
2024-04-21T08:23:13.702Z,1465.00
2024-04-21T08:26:13.501Z,1482.00
2024-04-21T08:29:13.543Z,1484.00
2024-04-21T08:32:13.541Z,1481.00
2024-04-21T08:35:13.496Z,1534.00
2024-04-21T08:38:13.401Z,1500.00
2024-04-21T08:41:13.371Z,1553.00
2024-04-21T08:44:13.722Z,1524.00
2024-04-21T08:47:13.285Z,1562.00
2024-04-21T08:50:13.259Z,1511.00
2024-04-21T08:53:13.320Z,1602.00
2024-04-21T08:56:13.176Z,1499.00
2024-04-21T08:59:13.206Z,1588.00
2024-04-21T09:02:13.211Z,1791.00
2024-04-21T09:05:13.143Z,1991.00
2024-04-21T09:08:13.066Z,626.00
2024-04-21T09:11:13.171Z,1500.00
2024-04-21T09:14:13.047Z,2581.00
2024-04-21T09:17:13.008Z,853.00
2024-04-21T09:20:13.092Z,2458.00
2024-04-21T09:23:12.952Z,3824.00
2024-04-21T09:26:12.859Z,2124.00
2024-04-21T09:29:12.915Z,2540.00
2024-04-21T09:32:12.849Z,1718.00
2024-04-21T09:35:12.866Z,518.00
2024-04-21T09:38:12.774Z,2326.00
2024-04-21T09:41:12.743Z,1363.00
2024-04-21T09:44:12.784Z,2202.00
2024-04-21T09:47:12.672Z,1746.00
2024-04-21T09:50:12.695Z,1559.00
2024-04-21T09:53:12.628Z,1535.00
2024-04-21T09:56:12.580Z,1195.00
2024-04-21T09:59:12.615Z,2615.00
2024-04-21T10:02:12.536Z,2521.00
2024-04-21T10:05:12.545Z,1966.00
2024-04-21T10:08:12.552Z,1285.00
2024-04-21T10:11:12.554Z,2634.00
2024-04-21T10:14:12.450Z,2443.00
2024-04-21T10:17:12.391Z,4335.00
2024-04-21T10:20:12.435Z,4129.00
2024-04-21T10:23:12.309Z,4276.00
2024-04-21T10:26:12.367Z,2383.00
2024-04-21T10:29:12.305Z,3429.00
2024-04-21T10:32:12.258Z,3508.00
2024-04-21T10:35:12.234Z,6096.00
2024-04-21T10:38:12.235Z,4605.00
2024-04-21T10:41:12.210Z,1818.00
2024-04-21T10:44:12.171Z,3132.00
2024-04-21T10:47:12.079Z,2700.00
2024-04-21T10:50:12.088Z,4969.00
2024-04-21T10:53:12.002Z,4842.00
2024-04-21T10:56:12.120Z,3795.00
2024-04-21T10:59:11.946Z,4110.00
2024-04-21T11:02:11.952Z,3815.00
2024-04-21T11:05:11.994Z,4273.00
2024-04-21T11:08:11.881Z,4068.00
2024-04-21T11:11:11.935Z,2972.00
2024-04-21T11:14:11.933Z,3973.00
2024-04-21T11:17:11.777Z,3094.00
2024-04-21T11:20:11.783Z,6322.00
2024-04-21T11:23:11.750Z,5956.00
2024-04-21T11:26:11.714Z,5458.00
2024-04-21T11:29:11.654Z,5185.00
2024-04-21T11:32:14.765Z,5428.00
2024-04-21T11:35:11.690Z,5385.00
2024-04-21T11:38:11.594Z,4594.00
2024-04-21T11:41:11.621Z,3967.00
2024-04-21T11:44:11.517Z,2866.00
2024-04-21T11:47:11.520Z,4624.00
2024-04-21T11:50:11.434Z,5718.00
2024-04-21T11:53:11.385Z,5434.00
2024-04-21T11:56:11.432Z,5377.00
2024-04-21T11:59:11.338Z,3932.00
2024-04-21T12:02:11.311Z,1994.00
2024-04-21T12:05:11.381Z,2276.00
2024-04-21T12:08:11.347Z,2128.00
2024-04-21T12:11:11.295Z,3589.00
2024-04-21T12:14:11.207Z,5854.00
2024-04-21T12:17:11.160Z,5764.00
2024-04-21T12:20:11.129Z,2746.00
2024-04-21T12:23:11.062Z,5503.00
2024-04-21T12:26:11.103Z,5514.00
2024-04-21T12:29:11.054Z,5864.00
2024-04-21T12:32:11.062Z,6264.00
2024-04-21T12:35:10.933Z,4168.00
2024-04-21T12:38:10.919Z,3831.00
2024-04-21T12:41:10.916Z,5766.00
2024-04-21T12:44:10.855Z,4738.00
2024-04-21T12:47:10.946Z,1797.00
2024-04-21T12:50:10.804Z,1864.00
2024-04-21T12:53:10.798Z,4833.00
2024-04-21T12:56:10.789Z,4280.00
2024-04-21T12:59:10.772Z,3366.00
2024-04-21T13:02:10.797Z,2465.00
2024-04-21T13:05:10.826Z,2453.00
2024-04-21T13:08:10.593Z,2068.00
2024-04-21T13:11:10.703Z,3395.00
2024-04-21T13:14:10.639Z,4186.00
2024-04-21T13:17:10.637Z,3485.00
2024-04-21T13:20:10.512Z,2521.00
2024-04-21T13:23:10.438Z,1569.00
2024-04-21T13:26:10.467Z,3850.00
2024-04-21T13:29:10.424Z,2534.00
2024-04-21T13:32:10.593Z,4794.00
2024-04-21T13:35:10.455Z,5976.00
2024-04-21T13:38:10.340Z,4467.00
2024-04-21T13:41:10.301Z,4073.00
2024-04-21T13:44:10.303Z,5370.00
2024-04-21T13:47:10.241Z,6298.00
2024-04-21T13:50:10.190Z,6342.00
2024-04-21T13:53:10.273Z,5334.00
2024-04-21T13:56:10.110Z,6106.00
2024-04-21T13:59:16.050Z,4752.00
2024-04-21T14:02:10.029Z,3708.00
2024-04-21T14:05:10.026Z,3330.00
2024-04-21T14:08:09.945Z,3525.00
2024-04-21T14:11:09.974Z,2886.00
2024-04-21T14:14:09.897Z,3041.00
2024-04-21T14:17:10.011Z,2323.00
2024-04-21T14:20:09.871Z,3944.00
2024-04-21T14:23:09.797Z,5273.00
2024-04-21T14:26:09.766Z,4095.00
2024-04-21T14:29:09.719Z,4074.00
2024-04-21T14:32:09.710Z,1037.00
2024-04-21T14:35:09.690Z,5639.00
2024-04-21T14:38:09.638Z,3940.00
2024-04-21T14:41:09.646Z,4602.00
2024-04-21T14:44:09.583Z,3092.00
2024-04-21T14:47:09.619Z,6191.00
2024-04-21T14:50:09.553Z,3990.00
2024-04-21T14:53:09.486Z,5493.00
2024-04-21T14:56:09.491Z,6539.00
2024-04-21T14:59:09.446Z,4190.00
2024-04-21T15:02:09.438Z,2609.00
2024-04-21T15:05:09.662Z,1375.00
2024-04-21T15:08:09.349Z,845.00
2024-04-21T15:11:09.373Z,586.00
2024-04-21T15:14:09.257Z,435.00
2024-04-21T15:17:09.259Z,405.00
2024-04-21T15:20:09.263Z,418.00
2024-04-21T15:23:09.210Z,294.00
2024-04-21T15:26:09.172Z,282.00
2024-04-21T15:29:09.118Z,340.00
2024-04-21T15:32:09.310Z,269.00
2024-04-21T15:35:09.090Z,314.00
2024-04-21T15:38:09.042Z,337.00
2024-04-21T15:41:09.011Z,360.00
2024-04-21T15:44:08.981Z,294.00
2024-04-21T15:47:09.015Z,695.00
2024-04-21T15:50:08.913Z,867.00
2024-04-21T15:53:08.881Z,875.00
2024-04-21T15:56:08.879Z,1016.00
2024-04-21T15:59:08.828Z,869.00
2024-04-21T16:02:08.855Z,591.00
2024-04-21T16:05:08.893Z,641.00
2024-04-21T16:08:09.601Z,463.00
2024-04-21T16:11:08.750Z,330.00
2024-04-21T16:14:08.650Z,309.00
2024-04-21T16:17:08.827Z,443.00
2024-04-21T16:20:08.636Z,586.00
2024-04-21T16:23:08.579Z,618.00
2024-04-21T16:26:08.604Z,644.00
2024-04-21T16:29:08.577Z,671.00
2024-04-21T16:32:08.539Z,907.00
2024-04-21T16:35:08.445Z,1545.00
2024-04-21T16:38:08.460Z,2041.00
2024-04-21T16:41:08.416Z,1866.00
2024-04-21T16:44:08.404Z,1547.00
2024-04-21T16:47:08.422Z,1273.00
2024-04-21T16:50:08.319Z,1563.00
2024-04-21T16:53:08.283Z,1301.00
2024-04-21T16:56:08.269Z,931.00
2024-04-21T16:59:08.216Z,880.00
2024-04-21T17:02:08.236Z,987.00
2024-04-21T17:05:08.219Z,959.00
2024-04-21T17:08:08.173Z,1049.00
2024-04-21T17:11:08.183Z,886.00
2024-04-21T17:14:08.079Z,1154.00
2024-04-21T17:17:08.195Z,1170.00
2024-04-21T17:20:08.026Z,996.00
2024-04-21T17:23:09.379Z,850.00
2024-04-21T17:26:07.953Z,767.00
2024-04-21T17:29:10.517Z,727.00
2024-04-21T17:32:07.906Z,664.00
2024-04-21T17:35:07.949Z,576.00
2024-04-21T17:38:07.874Z,539.00
2024-04-21T17:41:07.843Z,434.00
2024-04-21T17:44:07.790Z,358.00
2024-04-21T17:47:07.830Z,326.00
2024-04-21T17:50:07.726Z,357.00
2024-04-21T17:53:07.737Z,361.00
2024-04-21T17:56:07.681Z,371.00
2024-04-21T17:59:07.616Z,375.00
2024-04-21T18:02:07.575Z,269.00
2024-04-21T18:05:07.608Z,211.00
2024-04-21T18:08:07.564Z,183.00
2024-04-21T18:11:07.586Z,154.00
2024-04-21T18:14:07.482Z,129.00
2024-04-21T18:17:13.966Z,107.00
2024-04-21T18:20:07.463Z,82.00
2024-04-21T18:23:07.394Z,63.00
2024-04-21T18:26:07.374Z,44.00
2024-04-21T18:29:07.302Z,31.00
2024-04-21T18:32:07.342Z,21.00
2024-04-21T18:35:07.276Z,16.00
2024-04-21T18:38:07.254Z,8.00
2024-04-21T18:41:07.265Z,6.00
2024-04-21T18:44:07.145Z,3.00
2024-04-21T18:47:07.260Z,2.00
2024-04-21T18:50:07.131Z,2.00
2024-04-21T18:53:07.195Z,1.00
2024-04-21T18:56:07.108Z,0.00
2024-04-21T18:59:07.099Z,0.00
2024-04-21T19:02:07.195Z,0.00
2024-04-21T19:05:07.006Z,0.00
2024-04-21T19:08:06.997Z,0.00
2024-04-21T19:11:07.044Z,0.00
2024-04-21T19:14:07.171Z,0.00
2024-04-21T19:17:06.934Z,0.00
2024-04-21T19:20:06.907Z,0.00
2024-04-21T19:23:06.806Z,0.00
2024-04-21T19:26:06.850Z,0.00
2024-04-21T19:29:06.747Z,0.00
2024-04-21T19:32:06.920Z,0.00
2024-04-21T19:35:06.711Z,0.00
2024-04-21T19:38:06.740Z,0.00
2024-04-21T19:41:06.699Z,0.00
2024-04-21T19:44:06.621Z,0.00
2024-04-21T19:47:06.642Z,0.00
2024-04-21T19:50:06.531Z,0.00
2024-04-21T19:53:06.518Z,0.00
2024-04-21T19:56:06.545Z,0.00
2024-04-21T19:59:09.275Z,0.00
2024-04-21T20:02:06.511Z,0.00
2024-04-21T20:05:06.403Z,0.00
2024-04-21T20:08:06.384Z,0.00
2024-04-21T20:11:06.337Z,0.00
2024-04-21T20:14:06.325Z,0.00
2024-04-21T20:17:06.341Z,0.00
2024-04-21T20:20:06.250Z,0.00
2024-04-21T20:23:06.204Z,0.00
2024-04-21T20:26:06.205Z,0.00
2024-04-21T20:29:06.155Z,0.00
2024-04-21T20:32:06.153Z,0.00
2024-04-21T20:35:06.078Z,0.00
2024-04-21T20:38:06.074Z,0.00
2024-04-21T20:41:06.031Z,0.00
2024-04-21T20:44:06.018Z,0.00
2024-04-21T20:47:06.012Z,0.00
2024-04-21T20:50:05.981Z,0.00
2024-04-21T20:53:05.971Z,0.00
2024-04-21T20:56:05.906Z,0.00
2024-04-21T20:59:05.925Z,0.00
2024-04-21T21:02:05.915Z,0.00
2024-04-21T21:05:05.829Z,0.00
2024-04-21T21:08:05.820Z,0.00
2024-04-21T21:11:05.802Z,0.00
2024-04-21T21:14:05.788Z,0.00
2024-04-21T21:17:05.773Z,0.00
2024-04-21T21:20:05.706Z,0.00
2024-04-21T21:23:05.603Z,0.00
2024-04-21T21:26:06.623Z,0.00
2024-04-21T21:29:05.557Z,0.00
2024-04-21T21:32:05.588Z,0.00
2024-04-21T21:35:08.635Z,0.00
2024-04-21T21:38:05.537Z,0.00
2024-04-21T21:41:05.550Z,0.00
2024-04-21T21:44:05.455Z,0.00
2024-04-21T21:47:05.395Z,0.00
2024-04-21T21:50:05.365Z,0.00
2024-04-21T21:53:05.326Z,0.00
2024-04-21T21:56:05.337Z,0.00
2024-04-21T21:59:05.276Z,0.00
2024-04-21T22:02:05.396Z,0.00
2024-04-21T22:05:08.655Z,0.00
2024-04-21T22:08:05.385Z,0.00
2024-04-21T22:11:05.291Z,0.00
2024-04-21T22:14:05.094Z,0.00
2024-04-21T22:17:05.119Z,0.00
2024-04-21T22:20:05.056Z,0.00
2024-04-21T22:23:05.033Z,0.00
2024-04-21T22:26:04.993Z,0.00
2024-04-21T22:29:04.939Z,0.00
2024-04-21T22:32:05.010Z,0.00
2024-04-21T22:35:04.901Z,0.00
2024-04-21T22:38:04.841Z,0.00
2024-04-21T22:41:04.842Z,0.00
2024-04-21T22:44:04.779Z,0.00
2024-04-21T22:47:04.780Z,0.00
2024-04-21T22:50:04.737Z,0.00
2024-04-21T22:53:04.715Z,0.00
2024-04-21T22:56:04.688Z,0.00
2024-04-21T22:59:04.658Z,0.00
2024-04-21T23:02:04.633Z,0.00
2024-04-21T23:05:04.612Z,0.00
2024-04-21T23:08:04.543Z,0.00
2024-04-21T23:11:04.599Z,0.00
2024-04-21T23:14:04.493Z,0.00
2024-04-21T23:17:04.477Z,0.00
2024-04-21T23:20:04.443Z,0.00
2024-04-21T23:23:04.422Z,0.00
2024-04-21T23:26:04.374Z,0.00
2024-04-21T23:29:04.334Z,0.00
2024-04-21T23:32:04.420Z,0.00
2024-04-21T23:35:04.398Z,0.00
2024-04-21T23:38:04.343Z,0.00
2024-04-21T23:41:06.199Z,0.00
2024-04-21T23:44:04.189Z,0.00
2024-04-21T23:47:04.318Z,0.00
2024-04-21T23:50:04.132Z,0.00
2024-04-21T23:53:04.137Z,0.00
2024-04-21T23:56:04.096Z,0.00
2024-04-21T23:59:04.049Z,0.00
